Time;durP1;ratioP1;P1;durP2;ratioP2;P2;SDS_P1;SDS_P2;PMS_P1;PMS_P2;Temp;Humidity;BMP_temperature;BMP_pressure;BME280_temperature;BME280_humidity;BME280_pressure;Samples;Min_cycle;Max_cycle;Signal;HPM_P1;HPM_P2
2022/08/18 13:20:52;;;;;;;6.20;5.60;;;;;;;36.76;31.15;100019.63;1829901;77;23199;-79
2022/08/18 13:23:21;;;;;;;6.95;5.95;;;;;;;36.67;31.32;100021.06;1816614;78;21113;-80
2022/08/18 13:25:49;;;;;;;8.95;5.78;;;;;;;36.55;31.40;100019.68;1815336;78;21924;-84
2022/08/18 13:28:16;;;;;;;6.20;5.45;;;;;;;36.46;31.38;100012.34;1817448;78;21656;-81
2022/08/18 13:30:44;;;;;;;7.35;5.50;;;;;;;36.53;31.63;99994.51;1819731;78;21058;-81
2022/08/18 13:33:11;;;;;;;;;;;;;;;36.60;31.39;99989.77;1820878;78;21035;-84
2022/08/18 13:35:38;;;;;;;6.20;5.42;;;;;;;36.55;30.98;99993.20;1815190;78;20561;-81
2022/08/18 13:38:06;;;;;;;5.97;5.28;;;;;;;36.35;31.05;99993.53;1816121;78;21820;-80
2022/08/18 13:40:33;;;;;;;7.50;5.93;;;;;;;36.01;30.98;99997.02;1816763;77;21320;-79
2022/08/18 13:43:00;;;;;;;6.45;5.85;;;;;;;35.63;31.10;99995.47;1814918;77;21030;-84
2022/08/18 13:45:27;;;;;;;7.70;5.87;;;;;;;35.19;31.37;100005.65;1814848;78;22194;-80
2022/08/18 13:47:54;;;;;;;7.15;5.50;;;;;;;34.79;31.71;100001.45;1822362;78;21097;-78
2022/08/18 13:50:21;;;;;;;6.53;5.70;;;;;;;34.71;32.07;99995.48;1817152;78;21989;-79
2022/08/18 13:52:49;;;;;;;6.42;5.30;;;;;;;34.76;32.36;99986.11;1814905;78;21484;-78
2022/08/18 13:55:18;;;;;;;7.78;5.67;;;;;;;34.88;32.38;99974.76;1820144;78;21050;-80
2022/08/18 13:57:50;;;;;;;8.30;6.35;;;;;;;34.95;32.30;99976.89;1822220;78;21487;-78
2022/08/18 14:00:19;;;;;;;6.83;5.60;;;;;;;35.06;32.16;99973.97;1819149;78;20971;-78
2022/08/18 14:02:52;;;;;;;6.05;5.30;;;;;;;35.16;32.20;99976.97;1794166;78;21158;-78
2022/08/18 14:05:19;;;;;;;5.53;5.00;;;;;;;35.20;31.89;99967.83;1790730;78;21015;-78
2022/08/18 14:07:46;;;;;;;8.85;5.28;;;;;;;35.26;31.68;99964.19;1812180;78;21040;-79
2022/08/18 14:10:14;;;;;;;6.87;5.95;;;;;;;35.29;31.59;99961.83;1803173;78;21552;-79
2022/08/18 14:12:44;;;;;;;7.87;5.95;;;;;;;35.40;31.57;99953.41;1806427;78;21538;-79
2022/08/18 14:15:14;;;;;;;7.95;5.58;;;;;;;35.50;31.57;99951.47;1789745;78;21602;-79
2022/08/18 14:17:42;;;;;;;7.40;5.45;;;;;;;35.52;31.33;99951.55;1788047;78;21286;-79
2022/08/18 14:28:32;;;;;;;5.80;5.20;;;;;;;35.43;31.30;99945.30;1811802;78;21124;-80
2022/08/18 14:31:02;;;;;;;6.12;5.62;;;;;;;35.45;31.22;99937.20;1830292;78;21081;-79
2022/08/18 14:33:31;;;;;;;7.47;5.33;;;;;;;35.42;31.30;99934.08;1820154;78;20994;-80
2022/08/18 14:35:58;;;;;;;6.60;5.65;;;;;;;35.36;31.42;99924.94;1830860;78;21058;-82
2022/08/18 14:38:25;;;;;;;7.78;5.95;;;;;;;35.35;31.53;99912.39;1798073;78;21264;-81
2022/08/18 14:40:52;;;;;;;7.10;5.90;;;;;;;35.32;31.42;99927.02;1818098;78;21311;-82
2022/08/18 14:43:21;;;;;;;6.87;6.12;;;;;;;35.22;31.46;99928.38;1830050;77;21010;-82
2022/08/18 14:45:48;;;;;;;6.65;5.58;;;;;;;35.17;31.48;99924.17;1820232;77;21022;-81
2022/08/18 14:48:20;;;;;;;7.90;5.80;;;;;;;34.99;31.27;99924.98;1811829;78;21054;-81
2022/08/18 14:50:51;;;;;;;7.08;6.05;;;;;;;34.81;31.60;99917.67;1811961;78;21042;-81
2022/08/18 14:53:22;;;;;;;7.53;6.17;;;;;;;34.73;31.91;99923.41;1805099;78;22065;-81
2022/08/18 14:55:51;;;;;;;6.85;6.00;;;;;;;34.67;31.87;99921.61;1831193;77;21437;-81
2022/08/18 14:58:27;;;;;;;6.87;6.17;;;;;;;34.69;31.87;99918.64;1806071;78;21093;-81
2022/08/18 15:00:55;;;;;;;8.98;6.00;;;;;;;34.71;31.91;99926.06;1821406;78;22074;-81
2022/08/18 15:03:25;;;;;;;6.78;6.17;;;;;;;34.74;31.94;99919.63;1808321;77;21379;-81
2022/08/18 15:05:53;;;;;;;7.10;6.40;;;;;;;34.76;31.97;99909.88;1831364;78;21038;-81
2022/08/18 15:08:22;;;;;;;7.97;6.75;;;;;;;34.71;32.04;99914.64;1808446;77;21027;-81
2022/08/18 15:10:50;;;;;;;7.30;6.55;;;;;;;34.63;32.20;99914.94;1824775;77;21031;-81
2022/08/18 15:13:18;;;;;;;8.05;7.25;;;;;;;34.62;32.20;99935.89;1813006;78;21018;-81
2022/08/18 15:15:45;;;;;;;7.55;6.72;;;;;;;34.60;32.12;99933.91;1831574;78;22072;-81
2022/08/18 15:18:13;;;;;;;8.35;6.67;;;;;;;34.55;32.10;99937.80;1820002;78;21113;-81
2022/08/18 15:26:15;;;;;;;9.70;6.78;;;;;;;34.45;31.95;99961.14;1818811;78;21342;-81
2022/08/18 15:28:42;;;;;;;9.30;6.80;;;;;;;34.31;31.93;99963.15;1791624;78;21031;-81
2022/08/18 15:31:09;;;;;;;7.62;7.03;;;;;;;34.12;32.09;99965.01;1828408;78;21174;-80
2022/08/18 15:33:36;;;;;;;8.03;7.20;;;;;;;33.95;32.17;99970.95;1828436;78;20959;-81
2022/08/18 15:36:04;;;;;;;11.88;7.40;;;;;;;33.78;32.43;99972.52;1817032;78;21539;-81
2022/08/18 15:38:31;;;;;;;8.53;7.70;;;;;;;33.66;32.56;99977.00;1828500;78;21066;-80
2022/08/18 15:41:01;;;;;;;9.00;7.37;;;;;;;33.51;32.47;99975.91;1828458;77;21527;-80
2022/08/18 15:43:31;;;;;;;8.28;7.45;;;;;;;33.38;32.62;99973.25;1788495;77;21197;-81
2022/08/18 15:46:00;;;;;;;8.93;7.97;;;;;;;33.25;32.88;99975.50;1807488;78;21002;-81
2022/08/18 15:48:28;;;;;;;9.28;8.25;;;;;;;33.14;33.01;99965.31;1813437;77;20983;-80
2022/08/18 15:50:55;;;;;;;9.60;8.38;;;;;;;33.04;33.09;99957.63;1821719;78;20999;-81
2022/08/18 15:53:25;;;;;;;9.90;7.72;;;;;;;32.97;33.45;99952.70;1828495;78;20979;-81
2022/08/18 15:55:52;;;;;;;9.68;7.75;;;;;;;32.91;33.70;99943.54;1799111;77;22231;-81
2022/08/18 15:58:20;;;;;;;8.80;7.97;;;;;;;32.89;33.67;99936.95;1770796;78;21673;-81
2022/08/18 16:00:47;;;;;;;8.13;7.30;;;;;;;32.91;33.66;99925.06;1795779;78;22220;-81
2022/08/18 16:03:16;;;;;;;8.63;7.87;;;;;;;32.93;33.70;99924.34;1828479;78;21019;-81
2022/08/18 16:05:51;;;;;;;8.95;8.05;;;;;;;32.91;33.77;99919.11;1822288;78;20992;-80
2022/08/18 16:08:22;;;;;;;8.50;7.80;;;;;;;32.82;33.70;99915.80;1823782;78;21110;-80
2022/08/18 16:10:50;;;;;;;10.72;8.18;;;;;;;32.76;33.92;99904.95;1812273;78;20955;-80
2022/08/18 16:13:18;;;;;;;10.25;8.50;;;;;;;32.65;33.98;99905.94;1789752;77;21007;-79
2022/08/18 16:15:47;;;;;;;9.10;8.10;;;;;;;32.61;34.10;99907.92;1828825;78;20983;-80
2022/08/18 16:18:15;;;;;;;;;;;;;;;32.56;34.02;99912.63;1831122;78;21030;-78
2022/08/18 16:20:43;;;;;;;9.95;8.33;;;;;;;32.51;34.09;99909.73;1780780;78;21232;-77
2022/08/18 16:23:11;;;;;;;9.10;8.20;;;;;;;32.44;34.29;99908.34;1755281;81;21044;-78
2022/08/18 16:25:40;;;;;;;10.45;8.43;;;;;;;32.35;34.49;99900.13;1742877;82;21081;-80
2022/08/18 16:28:12;;;;;;;10.45;8.45;;;;;;;32.24;34.72;99898.06;1742783;82;21098;-79
2022/08/18 16:30:39;;;;;;;8.98;7.87;;;;;;;32.10;34.74;99895.88;1755546;81;21009;-78
2022/08/18 16:33:06;;;;;;;11.00;8.43;;;;;;;32.01;34.89;99895.80;1739921;82;22094;-79
2022/08/18 16:35:36;;;;;;;9.65;8.73;;;;;;;31.98;35.07;99894.34;1747962;81;21009;-83
2022/08/18 16:38:07;;;;;;;9.27;8.33;;;;;;;31.96;35.19;99893.70;1755569;81;21038;-79
2022/08/18 16:40:34;;;;;;;9.30;8.40;;;;;;;31.92;35.45;99887.02;1755496;81;21116;-81
2022/08/18 16:43:01;;;;;;;9.73;8.10;;;;;;;31.86;35.53;99882.93;1755311;81;21040;-79
2022/08/18 16:45:30;;;;;;;8.78;7.87;;;;;;;31.77;35.79;99872.82;1755392;80;21098;-78
2022/08/18 16:47:57;;;;;;;9.18;8.23;;;;;;;31.67;35.94;99865.62;1755234;81;21042;-79
2022/08/18 16:50:24;;;;;;;9.78;8.08;;;;;;;31.59;36.04;99861.75;1755300;81;21021;-81
2022/08/18 16:52:51;;;;;;;11.73;7.87;;;;;;;31.49;36.15;99863.00;1744967;81;21002;-79
2022/08/18 16:55:19;;;;;;;9.68;8.10;;;;;;;31.42;36.32;99854.55;1738406;81;21342;-79
2022/08/18 17:06:10;;;;;;;9.20;8.30;;;;;;;31.03;37.31;99847.97;1703227;84;21123;-82
2022/08/18 17:08:39;;;;;;;9.03;8.13;;;;;;;30.93;37.60;99852.92;1722087;83;21120;-80
2022/08/18 17:11:13;;;;;;;12.23;8.05;;;;;;;30.83;37.83;99854.67;1745808;81;22280;-81
2022/08/18 17:13:43;;;;;;;9.23;8.28;;;;;;;30.74;38.10;99855.34;1755314;81;21084;-78
2022/08/18 17:16:10;;;;;;;12.05;8.35;;;;;;;30.66;38.47;99846.04;1742772;82;21500;-78
2022/08/18 17:18:39;;;;;;;9.95;8.20;;;;;;;30.59;38.63;99855.98;1722189;80;21519;-78
2022/08/18 17:21:10;;;;;;;10.98;8.00;;;;;;;30.50;38.69;99855.31;1746969;80;21536;-80
2022/08/18 17:23:39;;;;;;;12.35;8.25;;;;;;;30.45;38.90;99853.72;1784798;80;21139;-80
2022/08/18 17:26:11;;;;;;;15.32;8.43;;;;;;;30.41;39.20;99856.00;1792781;80;21022;-82
2022/08/18 17:28:46;;;;;;;10.18;8.25;;;;;;;30.36;39.41;99862.52;1781851;80;21487;-80
2022/08/18 17:31:14;;;;;;;10.72;8.03;;;;;;;30.27;39.73;99868.30;1787821;80;21061;-81
2022/08/18 17:33:44;;;;;;;10.08;8.73;;;;;;;30.19;39.92;99860.61;1764182;80;21049;-79
2022/08/18 17:36:16;;;;;;;12.78;8.35;;;;;;;30.11;40.20;99868.87;1763357;80;21094;-82
2022/08/18 17:39:00;;;;;;;10.03;8.78;;;;;;;30.03;40.40;99867.66;1758325;81;22131;-81
2022/08/18 17:41:27;;;;;;;12.07;8.65;;;;;;;29.97;40.64;99876.04;1754461;81;21048;-80
2022/08/18 17:43:57;;;;;;;10.55;8.45;;;;;;;29.88;40.99;99876.39;1780405;80;21010;-78
2022/08/18 17:46:32;;;;;;;12.70;8.53;;;;;;;29.77;41.07;99878.58;1739916;81;21027;-78
2022/08/18 17:51:32;;;;;;;12.10;8.73;;;;;;;29.69;41.42;99879.23;1771279;80;21123;-78
2022/08/18 17:52:00;;;;;;;12.00;8.50;;;;;;;29.62;41.69;99879.64;1740064;80;21042;-79
2022/08/18 17:54:35;;;;;;;14.45;9.13;;;;;;;29.52;41.93;99888.08;1787110;80;21042;-78
2022/08/18 17:57:09;;;;;;;15.50;8.80;;;;;;;29.43;42.12;99895.47;1766860;80;21055;-84
2022/08/18 18:00:00;;;;;;;10.03;8.98;;;;;;;29.35;42.38;99903.17;1788331;80;21196;-80
2022/08/18 18:02:32;;;;;;;11.08;8.75;;;;;;;29.26;42.71;99902.11;1763937;80;20989;-79
2022/08/18 18:05:02;;;;;;;14.80;9.70;;;;;;;29.15;43.18;99906.66;1734070;80;21043;-79
2022/08/18 18:07:41;;;;;;;11.10;9.55;;;;;;;29.00;43.67;99916.94;1764933;80;21106;-78
2022/08/18 18:10:26;;;;;;;12.25;9.20;;;;;;;28.88;44.17;99926.03;1741978;80;21053;-79
2022/08/18 18:13:22;;;;;;;17.23;9.18;;;;;;;28.73;44.31;99931.92;1741687;80;21102;-79
2022/08/18 18:15:59;;;;;;;11.12;9.73;;;;;;;28.58;44.82;99932.45;1741464;80;21493;-79
2022/08/18 18:18:40;;;;;;;13.35;10.03;;;;;;;28.40;45.21;99934.11;1741504;80;21051;-81
2022/08/18 18:21:09;;;;;;;;;;;;;;;28.26;45.52;99934.41;1744007;80;21058;-78
2022/08/18 18:23:40;;;;;;;11.48;9.73;;;;;;;28.17;46.00;99936.86;1737417;81;20517;-79
2022/08/18 18:26:29;;;;;;;12.78;10.40;;;;;;;28.09;46.05;99947.71;1741457;80;21007;-78
2022/08/18 18:29:29;;;;;;;11.22;10.03;;;;;;;27.97;46.25;99939.23;1742507;80;21462;-78
2022/08/18 18:32:01;;;;;;;15.28;10.13;;;;;;;27.89;46.51;99937.95;1760300;80;21012;-78
2022/08/18 18:34:40;;;;;;;11.57;10.18;;;;;;;27.77;46.87;99930.26;1752112;79;21461;-78
2022/08/18 18:37:31;;;;;;;11.68;10.45;;;;;;;27.71;47.06;99935.02;1773578;80;21043;-80
2022/08/18 18:40:04;;;;;;;12.47;10.32;;;;;;;27.67;47.34;99943.62;1750413;80;21012;-78
2022/08/18 18:42:35;;;;;;;12.15;10.30;;;;;;;27.63;47.43;99947.20;1764709;80;21086;-79
2022/08/18 18:45:12;;;;;;;12.45;10.43;;;;;;;27.58;47.53;99943.68;1769190;80;21059;-80
2022/08/18 18:48:10;;;;;;;12.00;10.80;;;;;;;27.55;47.77;99944.04;1764364;80;21023;-82
2022/08/18 18:50:59;;;;;;;11.43;10.30;;;;;;;27.50;47.95;99942.89;1751222;80;21018;-80
2022/08/18 18:53:38;;;;;;;14.05;10.80;;;;;;;27.43;48.14;99948.64;1770160;80;22279;-79
2022/08/18 18:56:39;;;;;;;11.60;10.50;;;;;;;27.36;48.37;99948.02;1687884;83;21827;-79
2022/08/18 18:59:24;;;;;;;12.45;10.45;;;;;;;27.31;48.46;99943.66;1662375;86;21032;-81
2022/08/18 19:02:11;;;;;;;13.78;10.88;;;;;;;27.30;48.48;99942.52;1650990;85;21104;-78
2022/08/18 19:04:52;;;;;;;16.15;10.98;;;;;;;27.28;48.55;99933.26;1652133;85;21146;-79
2022/08/18 19:07:28;;;;;;;13.65;10.18;;;;;;;27.26;48.71;99935.79;1652984;85;21111;-80
2022/08/18 19:10:06;;;;;;;11.25;10.05;;;;;;;27.22;48.72;99931.28;1652987;85;21155;-78
2022/08/18 19:12:46;;;;;;;11.40;10.18;;;;;;;27.21;48.79;99933.62;1650978;85;21092;-79
2022/08/18 19:15:14;;;;;;;12.25;10.48;;;;;;;27.20;48.89;99931.95;1652444;85;21085;-79
2022/08/18 19:17:48;;;;;;;11.53;10.28;;;;;;;27.19;48.98;99922.22;1652701;85;21059;-81
2022/08/18 19:20:28;;;;;;;13.03;10.15;;;;;;;27.18;49.02;99917.83;1652615;85;21087;-79
2022/08/18 19:23:17;;;;;;;13.10;10.50;;;;;;;27.19;49.06;99919.52;1650232;85;21219;-80
2022/08/18 19:25:49;;;;;;;11.28;9.65;;;;;;;27.18;49.17;99917.83;1649516;86;21110;-79
2022/08/18 19:28:44;;;;;;;12.25;9.48;;;;;;;27.17;49.22;99908.61;1650664;85;21054;-81
2022/08/18 19:31:19;;;;;;;11.50;9.55;;;;;;;27.16;49.26;99901.05;1650417;85;21081;-78
2022/08/18 19:33:59;;;;;;;10.55;9.40;;;;;;;27.15;49.36;99893.94;1714185;80;21617;-79
2022/08/18 19:36:54;;;;;;;11.73;9.55;;;;;;;27.15;49.43;99895.29;1738976;79;21238;-82
2022/08/18 19:39:45;;;;;;;13.05;9.73;;;;;;;27.12;49.44;99896.48;1744669;81;21529;-78
2022/08/18 19:42:42;;;;;;;10.98;9.58;;;;;;;27.11;49.54;99885.39;1758966;79;21011;-78
2022/08/18 19:45:33;;;;;;;10.60;9.40;;;;;;;27.10;49.56;99878.84;1750507;79;21053;-82
2022/08/18 19:48:24;;;;;;;11.45;9.23;;;;;;;27.08;49.61;99867.44;1716398;80;21051;-78
2022/08/18 19:51:32;;;;;;;10.50;9.18;;;;;;;27.07;49.63;99864.39;1767789;80;21126;-80
2022/08/18 19:54:44;;;;;;;11.03;9.50;;;;;;;27.05;49.63;99857.87;1771820;80;21065;-80
2022/08/18 19:57:23;;;;;;;10.70;9.65;;;;;;;27.04;49.68;99845.92;1738636;80;21106;-80
2022/08/18 20:00:36;;;;;;;10.45;9.40;;;;;;;27.01;49.73;99830.98;1697896;80;21045;-79
2022/08/18 20:03:27;;;;;;;9.75;8.60;;;;;;;26.99;49.83;99822.75;1690211;82;21289;-79
2022/08/18 20:06:03;;;;;;;11.40;9.55;;;;;;;26.95;49.89;99810.69;1699000;83;21295;-80
2022/08/18 20:08:39;;;;;;;13.08;10.18;;;;;;;26.90;49.98;99812.04;1716358;82;21125;-78
2022/08/18 20:11:17;;;;;;;11.03;9.15;;;;;;;26.86;50.09;99824.69;1685943;82;21043;-79
2022/08/18 20:13:47;;;;;;;11.40;9.18;;;;;;;26.83;50.24;99821.02;1715641;83;21099;-79
2022/08/18 20:16:36;;;;;;;12.78;10.25;;;;;;;26.80;50.33;99821.34;1718339;83;21177;-81
2022/08/18 20:19:40;;;;;;;11.15;9.48;;;;;;;26.76;50.45;99816.83;1679802;83;21311;-82
2022/08/18 20:22:22;;;;;;;11.57;10.00;;;;;;;26.75;50.50;99823.74;1683536;83;21099;-78
2022/08/18 20:25:04;;;;;;;12.63;9.28;;;;;;;26.70;50.66;99823.75;1687687;84;21130;-82
2022/08/18 20:27:38;;;;;;;10.80;9.70;;;;;;;26.68;50.77;99819.05;1690915;84;21087;-81
2022/08/18 20:30:31;;;;;;;10.60;9.45;;;;;;;26.66;50.84;99812.16;1692213;84;21060;-82
2022/08/18 20:33:28;;;;;;;11.48;9.33;;;;;;;26.63;50.96;99807.14;1666803;84;21155;-81
2022/08/18 20:36:03;;;;;;;13.28;9.38;;;;;;;26.60;51.07;99806.15;1634912;87;21110;-81
2022/08/18 20:38:36;;;;;;;11.73;9.55;;;;;;;26.56;51.21;99810.22;1678671;81;21083;-81
2022/08/18 20:41:31;;;;;;;12.43;10.38;;;;;;;26.53;51.26;99810.57;1737399;80;21076;-81
2022/08/18 20:44:23;;;;;;;10.72;9.73;;;;;;;26.49;51.39;99822.12;1726660;81;22367;-82
2022/08/18 20:47:16;;;;;;;11.43;9.40;;;;;;;26.45;51.47;99822.98;1724385;82;21175;-80
2022/08/18 20:49:57;;;;;;;12.53;8.93;;;;;;;26.43;51.65;99837.09;1738085;81;21472;-80
2022/08/18 20:52:48;;;;;;;11.83;10.13;;;;;;;26.39;51.78;99833.09;1727630;81;21026;-77
2022/08/18 20:55:50;;;;;;;10.75;9.35;;;;;;;26.37;51.97;99839.13;1736610;80;21026;-79
2022/08/18 20:58:23;;;;;;;11.03;9.20;;;;;;;26.35;52.07;99838.45;1725498;81;21092;-81
2022/08/18 21:00:55;;;;;;;11.00;10.00;;;;;;;26.31;52.10;99841.68;1723451;80;21899;-79
2022/08/18 21:03:37;;;;;;;10.15;9.10;;;;;;;26.26;52.11;99839.50;1721418;81;21273;-79
2022/08/18 21:06:08;;;;;;;11.88;9.90;;;;;;;26.23;52.23;99842.02;1734507;81;21014;-79
2022/08/18 21:08:38;;;;;;;11.28;9.48;;;;;;;26.19;52.43;99849.27;1718147;81;21075;-78
2022/08/18 21:11:27;;;;;;;10.90;9.65;;;;;;;26.17;52.67;99850.77;1708721;82;21102;-79
2022/08/18 21:14:00;;;;;;;12.85;10.30;;;;;;;26.11;52.70;99844.75;1727549;81;21122;-79
2022/08/18 21:16:32;;;;;;;11.55;9.65;;;;;;;26.08;52.92;99840.20;1715650;81;21043;-79
2022/08/18 21:19:07;;;;;;;11.88;10.35;;;;;;;26.05;53.00;99842.75;1742825;81;21543;-78
2022/08/18 21:21:46;;;;;;;13.03;10.20;;;;;;;26.00;53.01;99851.31;1724930;81;20936;-79
2022/08/18 21:24:33;;;;;;;13.50;9.70;;;;;;;25.96;53.16;99860.69;1740150;81;21105;-79
2022/08/18 21:27:08;;;;;;;14.03;10.00;;;;;;;25.95;53.26;99871.63;1734628;81;21855;-81
2022/08/18 21:29:37;;;;;;;12.95;9.80;;;;;;;25.92;53.42;99864.74;1783630;80;21589;-78
2022/08/18 21:32:13;;;;;;;10.80;9.80;;;;;;;25.86;53.57;99867.27;1771995;80;21033;-78
2022/08/18 21:34:43;;;;;;;14.78;10.98;;;;;;;25.79;53.78;99867.89;1783292;80;21063;-80
2022/08/18 21:37:12;;;;;;;12.58;10.30;;;;;;;25.76;53.89;99866.89;1787755;80;21043;-79
2022/08/18 21:39:58;;;;;;;11.75;10.25;;;;;;;25.72;53.91;99868.24;1783293;80;21134;-82
2022/08/18 21:42:42;;;;;;;13.50;10.00;;;;;;;25.68;54.06;99865.55;1774461;80;20869;-78
2022/08/18 21:45:22;;;;;;;14.78;10.25;;;;;;;25.65;54.17;99869.91;1778641;80;20997;-83
2022/08/18 21:47:59;;;;;;;14.50;10.25;;;;;;;25.61;54.28;99872.61;1755567;80;21063;-78
2022/08/18 21:50:30;;;;;;;14.33;10.30;;;;;;;25.57;54.43;99877.95;1756360;80;21036;-79
2022/08/18 21:53:05;;;;;;;16.32;10.50;;;;;;;25.54;54.59;99879.13;1756843;80;21971;-79
2022/08/18 21:55:41;;;;;;;16.65;10.93;;;;;;;25.53;54.73;99881.98;1779100;80;21055;-79
2022/08/18 21:58:20;;;;;;;12.07;10.65;;;;;;;25.50;54.82;99874.27;1765892;80;21497;-81
2022/08/18 22:01:28;;;;;;;12.95;10.55;;;;;;;25.46;54.95;99875.09;1786847;80;21557;-78
2022/08/18 22:04:02;;;;;;;13.25;10.68;;;;;;;25.43;55.10;99879.95;1777619;80;21032;-78
2022/08/18 22:06:39;;;;;;;14.15;11.33;;;;;;;25.41;55.21;99896.70;1777781;80;21378;-81
2022/08/18 22:15:33;;;;;;;12.63;10.25;;;;;;;25.33;55.59;99896.19;1784950;80;21083;-78
2022/08/18 22:18:07;;;;;;;14.80;10.32;;;;;;;25.34;55.72;99897.88;1773047;80;21041;-79
2022/08/18 22:20:46;;;;;;;11.48;10.15;;;;;;;25.34;55.79;99897.38;1782121;80;21129;-78
2022/08/18 22:26:17;;;;;;;11.80;9.65;;;;;;;25.34;55.83;99889.83;1741407;81;21065;-79
2022/08/18 22:28:52;;;;;;;13.03;10.25;;;;;;;25.35;56.00;99889.66;1750114;81;21449;-79
2022/08/18 22:31:22;;;;;;;12.13;10.10;;;;;;;25.35;56.00;99890.16;1739475;81;21375;-79
2022/08/18 22:33:51;;;;;;;13.03;10.23;;;;;;;25.35;56.05;99880.77;1742537;81;21568;-79
2022/08/18 22:36:26;;;;;;;12.60;10.40;;;;;;;25.35;56.09;99893.67;1742488;81;21065;-79
2022/08/18 22:38:54;;;;;;;13.65;10.10;;;;;;;25.35;56.14;99910.28;1741476;81;21033;-79
2022/08/18 22:41:21;;;;;;;12.07;9.78;;;;;;;25.34;56.17;99916.16;1742363;81;21042;-79
2022/08/18 22:43:49;;;;;;;12.18;10.48;;;;;;;25.37;56.16;99922.53;1742509;80;21308;-79
2022/08/18 22:46:16;;;;;;;12.63;10.70;;;;;;;25.39;56.15;99915.67;1742398;81;21058;-79
2022/08/18 22:48:44;;;;;;;13.48;10.35;;;;;;;25.40;56.15;99915.16;1742395;81;21077;-79
2022/08/18 22:51:12;;;;;;;14.47;10.70;;;;;;;25.40;56.17;99901.24;1742413;81;21038;-79
2022/08/18 22:53:42;;;;;;;12.65;10.75;;;;;;;25.42;56.16;99895.72;1730790;81;21599;-79
2022/08/18 22:56:09;;;;;;;12.70;9.73;;;;;;;25.41;56.23;99896.70;1723002;82;21462;-82
2022/08/18 22:58:36;;;;;;;11.68;10.48;;;;;;;25.39;56.31;99897.40;1729583;82;21127;-79
2022/08/18 23:01:03;;;;;;;14.05;10.68;;;;;;;25.37;56.42;99898.38;1737536;82;21076;-79
2022/08/18 23:03:31;;;;;;;11.40;9.43;;;;;;;25.35;56.47;99901.72;1739587;82;21067;-79
2022/08/18 23:05:58;;;;;;;11.60;10.30;;;;;;;25.33;56.53;99897.05;1735281;82;21056;-79
2022/08/18 23:08:25;;;;;;;11.38;10.05;;;;;;;25.34;56.52;99897.38;1719667;81;21499;-83
2022/08/18 23:10:52;;;;;;;11.60;10.45;;;;;;;25.32;56.59;99889.16;1735083;82;21215;-79
2022/08/18 23:13:19;;;;;;;10.78;9.68;;;;;;;25.31;56.74;99892.34;1725277;82;21013;-79
2022/08/18 23:15:46;;;;;;;13.22;10.03;;;;;;;25.30;56.81;99896.52;1730733;82;21023;-79
2022/08/18 23:18:18;;;;;;;11.38;10.32;;;;;;;25.26;56.82;99893.84;1757826;80;21046;-79
2022/08/18 23:20:48;;;;;;;10.75;9.68;;;;;;;25.23;56.88;99884.27;1718364;82;21617;-79
2022/08/18 23:23:18;;;;;;;14.20;10.40;;;;;;;25.21;57.01;99878.73;1757128;80;22000;-79
2022/08/18 23:25:49;;;;;;;10.95;9.78;;;;;;;25.18;57.09;99873.20;1744935;80;21071;-79
2022/08/18 23:28:15;;;;;;;13.30;10.43;;;;;;;25.15;57.12;99870.34;1758667;80;27582;-79
2022/08/18 23:30:43;;;;;;;12.55;10.90;;;;;;;25.11;57.19;99866.80;1773197;80;21095;-79
2022/08/18 23:33:10;;;;;;;11.45;10.05;;;;;;;25.09;57.26;99867.45;1765215;80;21557;-78
2022/08/18 23:35:39;;;;;;;14.20;10.70;;;;;;;25.05;57.38;99858.91;1749705;81;21078;-82
2022/08/18 23:38:07;;;;;;;11.43;9.70;;;;;;;25.04;57.44;99859.05;1765574;80;21564;-79
2022/08/18 23:40:36;;;;;;;16.20;9.87;;;;;;;25.03;57.54;99870.28;1742669;81;21505;-79
2022/08/18 23:43:05;;;;;;;15.68;10.20;;;;;;;24.99;57.62;99864.89;1768255;80;21047;-78
2022/08/18 23:45:37;;;;;;;11.22;10.03;;;;;;;25.02;57.65;99877.97;1773201;80;21541;-79
2022/08/18 23:48:07;;;;;;;14.05;9.95;;;;;;;25.03;57.60;99876.16;1791822;80;21112;-78
2022/08/18 23:50:41;;;;;;;13.00;10.32;;;;;;;25.03;57.60;99874.31;1791743;80;21595;-79
2022/08/18 23:53:10;;;;;;;15.70;10.43;;;;;;;25.04;57.61;99863.08;1791772;80;20992;-82
2022/08/18 23:55:38;;;;;;;12.35;10.08;;;;;;;25.03;57.81;99862.24;1791983;80;20946;-79
2022/08/18 23:58:06;;;;;;;10.80;9.68;;;;;;;24.99;58.04;99845.30;1791771;80;21426;-79
